createdAt,value
2018-02-25T00:00:06.923Z,-5.47
2018-02-25T00:01:06.905Z,-5.48
2018-02-25T00:02:06.891Z,-5.5
2018-02-25T00:03:06.861Z,-5.62
2018-02-25T00:04:06.840Z,-5.55
2018-02-25T00:05:07.085Z,-5.54
2018-02-25T00:06:07.057Z,-5.62
2018-02-25T00:07:07.047Z,-5.59
2018-02-25T00:08:07.023Z,-5.62
2018-02-25T00:09:07.003Z,-5.61
2018-02-25T00:10:06.970Z,-5.68
2018-02-25T00:11:06.946Z,-5.72
2018-02-25T00:12:06.938Z,-5.68
2018-02-25T00:13:06.908Z,-5.69
2018-02-25T00:14:06.895Z,-5.65
2018-02-25T00:15:06.879Z,-5.61
2018-02-25T00:16:06.595Z,-5.61
2018-02-25T00:17:06.823Z,-5.61
2018-02-25T00:18:06.816Z,-5.65
2018-02-25T00:19:06.532Z,-5.71
2018-02-25T00:20:06.775Z,-5.64
2018-02-25T00:21:06.783Z,-5.65
2018-02-25T00:22:06.739Z,-5.68
2018-02-25T00:23:06.449Z,-5.68
2018-02-25T00:24:06.685Z,-5.69
2018-02-25T00:25:06.676Z,-5.65
2018-02-25T00:26:06.666Z,-5.69
2018-02-25T00:27:06.626Z,-5.64
2018-02-25T00:28:06.602Z,-5.71
2018-02-25T00:29:06.329Z,-5.71
2018-02-25T00:30:06.814Z,-5.68
2018-02-25T00:31:06.283Z,-5.65
2018-02-25T00:32:06.528Z,-5.64
2018-02-25T00:33:06.501Z,-5.74
2018-02-25T00:34:06.491Z,-5.64
2018-02-25T00:35:06.201Z,-5.76
2018-02-25T00:36:06.457Z,-5.76
2018-02-25T00:37:06.438Z,-5.75
2018-02-25T00:38:06.613Z,-5.84
2018-02-25T00:39:06.375Z,-5.68
2018-02-25T00:40:06.383Z,-5.8
2018-02-25T00:41:06.335Z,-5.75
2018-02-25T00:42:06.312Z,-5.74
2018-02-25T00:43:06.292Z,-5.82
2018-02-25T00:44:06.282Z,-5.76
2018-02-25T00:45:06.259Z,-5.84
2018-02-25T00:46:06.255Z,-5.86
2018-02-25T00:47:05.954Z,-5.86
2018-02-25T00:48:05.935Z,-5.87
2018-02-25T00:49:06.177Z,-5.9
2018-02-25T00:50:06.168Z,-5.9
2018-02-25T00:51:05.888Z,-5.9
2018-02-25T00:52:06.123Z,-5.86
2018-02-25T00:53:05.831Z,-5.89
2018-02-25T00:54:06.065Z,-5.94
2018-02-25T00:55:05.788Z,-5.84
2018-02-25T00:56:05.782Z,-5.86
2018-02-25T00:57:06.007Z,-5.87
2018-02-25T00:58:05.993Z,-5.83
2018-02-25T00:59:05.976Z,-5.93
2018-02-25T01:00:05.947Z,-5.93
2018-02-25T01:01:05.934Z,-5.94
2018-02-25T01:02:05.908Z,-5.94
2018-02-25T01:03:05.631Z,-5.93
2018-02-25T01:04:05.874Z,-5.94
2018-02-25T01:05:05.843Z,-5.94
2018-02-25T01:06:05.570Z,-5.94
2018-02-25T01:07:05.627Z,-5.97
2018-02-25T01:08:05.799Z,-5.87
2018-02-25T01:09:05.764Z,-5.83
2018-02-25T01:10:05.494Z,-5.89
2018-02-25T01:11:05.469Z,-5.94
2018-02-25T01:12:05.444Z,-5.94
2018-02-25T01:13:05.434Z,-5.98
2018-02-25T01:14:05.673Z,-5.94
2018-02-25T01:15:05.399Z,-6.08
2018-02-25T01:16:05.366Z,-6.05
2018-02-25T01:17:05.600Z,-6
2018-02-25T01:18:05.590Z,-6.07
2018-02-25T01:19:05.580Z,-6.1
2018-02-25T01:20:05.540Z,-6.13
2018-02-25T01:21:05.259Z,-6.16
2018-02-25T01:22:05.493Z,-6.1
2018-02-25T01:23:05.470Z,-6.13
2018-02-25T01:24:05.459Z,-6.16
2018-02-25T01:25:05.179Z,-6.18
2018-02-25T01:26:05.161Z,-6.23
2018-02-25T01:27:05.142Z,-6.19
2018-02-25T01:28:05.440Z,-6.21
2018-02-25T01:29:05.359Z,-6.16
2018-02-25T01:30:05.336Z,-6.23
2018-02-25T01:31:05.316Z,-6.25
2018-02-25T01:32:05.535Z,-6.21
2018-02-25T01:33:05.272Z,-6.25
2018-02-25T01:34:05.254Z,-6.23
2018-02-25T01:35:04.973Z,-6.39
2018-02-25T01:36:04.949Z,-6.29
2018-02-25T01:37:05.191Z,-6.21
2018-02-25T01:38:05.180Z,-6.28
2018-02-25T01:39:04.627Z,-6.37
2018-02-25T01:40:05.131Z,-6.26
2018-02-25T01:41:04.854Z,-6.25
2018-02-25T01:42:05.089Z,-6.25
2018-02-25T01:43:05.074Z,-6.13
2018-02-25T01:44:05.066Z,-6.22
2018-02-25T01:45:05.041Z,-6.25
2018-02-25T01:46:05.023Z,-6.22
2018-02-25T01:47:04.976Z,-6.19
2018-02-25T01:48:04.967Z,-6.18
2018-02-25T01:49:04.679Z,-6.22
2018-02-25T01:50:04.923Z,-6.19
2018-02-25T01:51:04.902Z,-6.19
2018-02-25T01:52:04.876Z,-6.22
2018-02-25T01:53:04.870Z,-6.25
2018-02-25T01:54:04.844Z,-6.28
2018-02-25T01:55:04.879Z,-6.32
2018-02-25T01:56:04.797Z,-6.29
2018-02-25T01:57:04.779Z,-6.23
2018-02-25T01:58:04.750Z,-6.42
2018-02-25T01:59:04.736Z,-6.32
2018-02-25T02:00:04.716Z,-6.37
2018-02-25T02:01:04.691Z,-6.36
2018-02-25T02:02:04.677Z,-6.44
2018-02-25T02:03:04.661Z,-6.39
2018-02-25T02:04:04.633Z,-6.47
2018-02-25T02:05:04.609Z,-6.42
2018-02-25T02:06:04.591Z,-6.46
2018-02-25T02:07:04.571Z,-6.44
2018-02-25T02:08:04.540Z,-6.5
2018-02-25T02:09:04.272Z,-6.5
2018-02-25T02:10:04.511Z,-6.47
2018-02-25T02:11:04.488Z,-6.54
2018-02-25T02:12:04.466Z,-6.46
2018-02-25T02:13:04.448Z,-6.49
2018-02-25T02:14:04.430Z,-6.44
2018-02-25T02:15:04.411Z,-6.46
2018-02-25T02:16:04.383Z,-6.46
2018-02-25T02:17:04.386Z,-6.37
2018-02-25T02:18:04.333Z,-6.47
2018-02-25T02:19:04.320Z,-6.43
2018-02-25T02:20:04.043Z,-6.55
2018-02-25T02:21:04.285Z,-6.49
2018-02-25T02:22:04.249Z,-6.61
2018-02-25T02:23:04.232Z,-6.43
2018-02-25T02:24:03.966Z,-6.52
2018-02-25T02:25:04.189Z,-6.44
2018-02-25T02:26:04.180Z,-6.58
2018-02-25T02:27:04.149Z,-6.49
2018-02-25T02:28:04.134Z,-6.49
2018-02-25T02:29:04.116Z,-6.54
2018-02-25T02:30:04.104Z,-6.46
2018-02-25T02:31:03.816Z,-6.5
2018-02-25T02:32:04.053Z,-6.44
2018-02-25T02:33:03.773Z,-6.47
2018-02-25T02:34:04.021Z,-6.63
2018-02-25T02:35:03.997Z,-6.5
2018-02-25T02:36:03.992Z,-6.54
2018-02-25T02:37:03.943Z,-6.58
2018-02-25T02:38:03.935Z,-6.65
2018-02-25T02:39:03.915Z,-6.59
2018-02-25T02:40:03.952Z,-6.65
2018-02-25T02:41:03.608Z,-6.63
2018-02-25T02:42:03.850Z,-6.68
2018-02-25T02:43:03.823Z,-6.71
2018-02-25T02:44:03.821Z,-6.69
2018-02-25T02:45:03.785Z,-6.71
2018-02-25T02:46:03.775Z,-6.68
2018-02-25T02:47:03.742Z,-6.69
2018-02-25T02:48:03.718Z,-6.66
2018-02-25T02:49:03.712Z,-6.77
2018-02-25T02:50:03.413Z,-6.83
2018-02-25T02:51:03.398Z,-6.77
2018-02-25T02:52:03.633Z,-6.82
2018-02-25T02:53:03.623Z,-6.8
2018-02-25T02:54:03.610Z,-6.74
2018-02-25T02:55:03.313Z,-6.82
2018-02-25T02:56:03.299Z,-6.77
2018-02-25T02:57:03.525Z,-6.77
2018-02-25T02:58:03.258Z,-6.79
2018-02-25T02:59:03.495Z,-6.73
2018-02-25T03:00:03.481Z,-6.77
2018-02-25T03:01:03.464Z,-6.79
2018-02-25T03:02:03.176Z,-6.73
2018-02-25T03:03:03.148Z,-6.77
2018-02-25T03:04:03.385Z,-6.92
2018-02-25T03:05:03.362Z,-6.79
2018-02-25T03:06:03.341Z,-6.79
2018-02-25T03:07:03.326Z,-6.86
2018-02-25T03:08:03.307Z,-6.86
2018-02-25T03:09:03.020Z,-7.01
2018-02-25T03:10:03.272Z,-6.94
2018-02-25T03:11:03.246Z,-6.95
2018-02-25T03:12:02.953Z,-6.95
2018-02-25T03:13:03.196Z,-7.01
2018-02-25T03:14:03.172Z,-7.02
2018-02-25T03:15:02.900Z,-7.11
2018-02-25T03:16:03.136Z,-7.05
2018-02-25T03:17:03.107Z,-7.08
2018-02-25T03:18:03.086Z,-7.04
2018-02-25T03:19:03.072Z,-7.07
2018-02-25T03:20:03.058Z,-7.13
2018-02-25T03:21:02.773Z,-7.13
2018-02-25T03:22:03.005Z,-7.26
2018-02-25T03:23:02.993Z,-7.26
2018-02-25T03:24:02.966Z,-7.26
2018-02-25T03:25:02.954Z,-7.26
2018-02-25T03:26:02.915Z,-7.3
2018-02-25T03:27:02.933Z,-7.29
2018-02-25T03:28:02.886Z,-7.34
2018-02-25T03:29:02.862Z,-7.3
2018-02-25T03:30:02.604Z,-7.26
2018-02-25T03:31:02.841Z,-7.31
2018-02-25T03:32:02.810Z,-7.48
2018-02-25T03:33:02.772Z,-7.44
2018-02-25T03:34:02.758Z,-7.41
2018-02-25T03:35:02.740Z,-7.48
2018-02-25T03:36:02.712Z,-7.41
2018-02-25T03:37:02.955Z,-7.5
2018-02-25T03:38:02.413Z,-7.39
2018-02-25T03:39:02.658Z,-7.46
2018-02-25T03:40:02.637Z,-7.44
2018-02-25T03:41:02.597Z,-7.41
2018-02-25T03:42:02.590Z,-7.43
2018-02-25T03:43:02.571Z,-7.46
2018-02-25T03:44:02.591Z,-7.41
2018-02-25T03:45:02.261Z,-7.44
2018-02-25T03:46:02.510Z,-7.41
2018-02-25T03:47:02.492Z,-7.4
2018-02-25T03:48:02.480Z,-7.43
2018-02-25T03:49:02.184Z,-7.43
2018-02-25T03:50:02.437Z,-7.41
2018-02-25T03:51:02.400Z,-7.46
2018-02-25T03:52:02.377Z,-7.46
2018-02-25T03:53:02.379Z,-7.43
2018-02-25T03:54:02.335Z,-7.41
2018-02-25T03:55:02.303Z,-7.4
2018-02-25T03:56:02.288Z,-7.36
2018-02-25T03:57:02.272Z,-7.41
2018-02-25T03:58:02.242Z,-7.3
2018-02-25T03:59:02.216Z,-7.39
2018-02-25T04:00:02.198Z,-7.25
2018-02-25T04:01:02.175Z,-7.4
2018-02-25T04:02:02.167Z,-7.3
2018-02-25T04:03:02.133Z,-7.37
2018-02-25T04:04:01.855Z,-7.3
2018-02-25T04:05:01.834Z,-7.33
2018-02-25T04:06:01.812Z,-7.26
2018-02-25T04:07:02.059Z,-7.29
2018-02-25T04:08:02.283Z,-7.33
2018-02-25T04:09:02.018Z,-7.31
2018-02-25T04:10:01.994Z,-7.3
2018-02-25T04:11:01.451Z,-7.29
2018-02-25T04:12:01.957Z,-7.31
2018-02-25T04:13:01.923Z,-7.26
2018-02-25T04:14:01.903Z,-7.3
2018-02-25T04:15:01.888Z,-7.33
2018-02-25T04:16:01.862Z,-7.29
2018-02-25T04:17:01.843Z,-7.3
2018-02-25T04:18:01.818Z,-7.34
2018-02-25T04:19:01.799Z,-7.34
2018-02-25T04:20:01.790Z,-7.23
2018-02-25T04:21:01.759Z,-7.36
2018-02-25T04:22:01.750Z,-7.33
2018-02-25T04:23:01.719Z,-7.25
2018-02-25T04:24:01.694Z,-7.33
2018-02-25T04:25:01.674Z,-7.31
2018-02-25T04:26:01.649Z,-7.3
2018-02-25T04:27:01.637Z,-7.33
2018-02-25T04:28:01.729Z,-7.36
2018-02-25T04:29:01.596Z,-7.39
2018-02-25T04:30:01.591Z,-7.39
2018-02-25T04:31:01.297Z,-7.46
2018-02-25T04:32:01.535Z,-7.41
2018-02-25T04:33:01.515Z,-7.37
2018-02-25T04:34:01.498Z,-7.43
2018-02-25T04:35:01.466Z,-7.5
2018-02-25T04:36:01.453Z,-7.43
2018-02-25T04:37:01.473Z,-7.44
2018-02-25T04:38:01.406Z,-7.44
2018-02-25T04:39:01.633Z,-7.54
2018-02-25T04:40:01.352Z,-7.43
2018-02-25T04:41:01.342Z,-7.46
2018-02-25T04:42:01.314Z,-7.6
2018-02-25T04:43:01.296Z,-7.61
2018-02-25T04:44:01.291Z,-7.66
2018-02-25T04:45:00.998Z,-7.61
2018-02-25T04:46:01.225Z,-7.6
2018-02-25T04:47:01.222Z,-7.6
2018-02-25T04:48:01.203Z,-7.64
2018-02-25T04:49:01.177Z,-7.57
2018-02-25T04:50:01.154Z,-7.58
2018-02-25T04:51:01.127Z,-7.62
2018-02-25T04:52:01.097Z,-7.6
2018-02-25T04:53:01.076Z,-7.62
2018-02-25T04:54:01.064Z,-7.6
2018-02-25T04:55:00.778Z,-7.6
2018-02-25T04:56:01.033Z,-7.6
2018-02-25T04:57:00.735Z,-7.61
2018-02-25T04:58:00.967Z,-7.64
2018-02-25T04:59:00.956Z,-7.62
2018-02-25T05:00:00.935Z,-7.58
2018-02-25T05:01:00.929Z,-7.57
2018-02-25T05:02:00.890Z,-7.6
2018-02-25T05:03:00.612Z,-7.62
2018-02-25T05:04:00.848Z,-7.62
2018-02-25T05:05:00.827Z,-7.64
2018-02-25T05:06:00.811Z,-7.62
2018-02-25T05:07:00.779Z,-7.58
2018-02-25T05:08:00.756Z,-7.61
2018-02-25T05:09:00.746Z,-7.61
2018-02-25T05:10:00.748Z,-7.61
2018-02-25T05:11:00.712Z,-7.61
2018-02-25T05:12:00.681Z,-7.62
2018-02-25T05:13:00.647Z,-7.64
2018-02-25T05:14:00.377Z,-7.68
2018-02-25T05:15:00.617Z,-7.69
2018-02-25T05:16:00.340Z,-7.79
2018-02-25T05:17:00.570Z,-7.73
2018-02-25T05:18:00.540Z,-7.71
2018-02-25T05:19:00.528Z,-7.68
2018-02-25T05:20:00.504Z,-7.68
2018-02-25T05:21:00.235Z,-7.76
2018-02-25T05:22:00.468Z,-7.72
2018-02-25T05:23:00.434Z,-7.75
2018-02-25T05:24:00.417Z,-7.76
2018-02-25T05:25:00.395Z,-7.82
2018-02-25T05:26:00.389Z,-7.83
2018-02-25T05:27:00.102Z,-7.79
2018-02-25T05:28:00.345Z,-7.86
2018-02-25T05:29:00.317Z,-7.82
2018-02-25T05:30:00.289Z,-7.79
2018-02-25T05:31:00.286Z,-7.87
2018-02-25T05:32:00.254Z,-7.9
2018-02-25T05:33:00.230Z,-7.79
2018-02-25T05:34:00.208Z,-7.79
2018-02-25T05:35:00.202Z,-7.86
2018-02-25T05:36:00.164Z,-7.79
2018-02-25T05:37:00.147Z,-7.71
2018-02-25T05:38:00.133Z,-7.76
2018-02-25T05:39:00.096Z,-7.72
2018-02-25T05:40:00.078Z,-7.69
2018-02-25T05:41:00.061Z,-7.72
2018-02-25T05:41:59.783Z,-7.75
2018-02-25T05:43:00.012Z,-7.72
2018-02-25T05:43:59.991Z,-7.8
2018-02-25T05:44:59.985Z,-7.86
2018-02-25T05:45:59.948Z,-7.78
2018-02-25T05:46:59.946Z,-7.76
2018-02-25T05:47:59.924Z,-7.87
2018-02-25T05:48:59.891Z,-7.79
2018-02-25T05:49:59.610Z,-7.79
2018-02-25T05:50:59.839Z,-7.87
2018-02-25T05:51:59.839Z,-7.86
2018-02-25T05:52:59.803Z,-7.83
2018-02-25T05:53:59.782Z,-7.86
2018-02-25T05:54:59.752Z,-7.86
2018-02-25T05:55:59.742Z,-7.73
2018-02-25T05:56:59.709Z,-7.86
2018-02-25T05:57:59.717Z,-7.79
2018-02-25T05:58:59.410Z,-7.82
2018-02-25T05:59:59.654Z,-7.87
2018-02-25T06:00:59.635Z,-7.82
2018-02-25T06:01:59.349Z,-7.87
2018-02-25T06:02:59.602Z,-7.83
2018-02-25T06:03:59.578Z,-7.86
2018-02-25T06:04:59.570Z,-7.78
2018-02-25T06:05:59.535Z,-7.82
2018-02-25T06:06:59.504Z,-7.86
2018-02-25T06:07:59.489Z,-7.82
2018-02-25T06:08:59.465Z,-7.83
2018-02-25T06:09:59.448Z,-7.83
2018-02-25T06:10:59.421Z,-7.78
2018-02-25T06:11:59.405Z,-7.72
2018-02-25T06:12:59.620Z,-7.8
2018-02-25T06:13:59.350Z,-7.64
2018-02-25T06:14:59.081Z,-7.73
2018-02-25T06:15:59.318Z,-7.69
2018-02-25T06:16:59.293Z,-7.61
2018-02-25T06:17:59.012Z,-7.57
2018-02-25T06:18:59.242Z,-7.61
2018-02-25T06:19:59.218Z,-7.6
2018-02-25T06:20:58.953Z,-7.57
2018-02-25T06:21:59.191Z,-7.64
2018-02-25T06:22:59.155Z,-7.6
2018-02-25T06:23:58.892Z,-7.58
2018-02-25T06:24:59.117Z,-7.57
2018-02-25T06:25:59.113Z,-7.61
2018-02-25T06:26:59.080Z,-7.72
2018-02-25T06:27:59.060Z,-7.64
2018-02-25T06:28:59.175Z,-7.69
2018-02-25T06:29:58.496Z,-7.71
2018-02-25T06:30:59.002Z,-7.71
2018-02-25T06:31:58.978Z,-7.68
2018-02-25T06:32:58.952Z,-7.6
2018-02-25T06:33:58.933Z,-7.66
2018-02-25T06:34:58.907Z,-7.55
2018-02-25T06:35:58.889Z,-7.46
2018-02-25T06:36:58.860Z,-7.41
2018-02-25T06:37:58.843Z,-7.3
2018-02-25T06:38:58.569Z,-7.29
2018-02-25T06:39:58.539Z,-7.13
2018-02-25T06:40:58.785Z,-7.02
2018-02-25T06:41:58.757Z,-6.87
2018-02-25T06:42:58.745Z,-6.82
2018-02-25T06:43:58.976Z,-6.65
2018-02-25T06:44:58.721Z,-6.44
2018-02-25T06:45:58.683Z,-6.29
2018-02-25T06:46:58.656Z,-6.05
2018-02-25T06:47:58.691Z,-5.83
2018-02-25T06:48:58.619Z,-5.65
2018-02-25T06:49:58.607Z,-5.57
2018-02-25T06:50:58.568Z,-5.66
2018-02-25T06:51:58.560Z,-5.54
2018-02-25T06:52:58.542Z,-5.41
2018-02-25T06:53:58.525Z,-5.39
2018-02-25T06:54:58.499Z,-5.36
2018-02-25T06:55:58.479Z,-5.1
2018-02-25T06:56:58.204Z,-5.08
2018-02-25T06:57:58.443Z,-5.03
2018-02-25T06:58:58.170Z,-4.97
2018-02-25T06:59:58.411Z,-4.95
2018-02-25T07:00:58.391Z,-4.83
2018-02-25T07:01:58.360Z,-4.69
2018-02-25T07:02:58.348Z,-4.49
2018-02-25T07:03:58.330Z,-4.33
2018-02-25T07:04:58.306Z,-4.22
2018-02-25T07:05:58.312Z,-4.04
2018-02-25T07:06:58.277Z,-3.96
2018-02-25T07:07:58.350Z,-3.86
2018-02-25T07:08:58.242Z,-3.88
2018-02-25T07:09:57.956Z,-3.81
2018-02-25T07:10:58.208Z,-3.88
2018-02-25T07:11:58.193Z,-3.9
2018-02-25T07:12:58.166Z,-3.85
2018-02-25T07:13:58.151Z,-3.69
2018-02-25T07:14:58.392Z,-3.64
2018-02-25T07:15:58.120Z,-3.6
2018-02-25T07:16:58.108Z,-3.59
2018-02-25T07:17:58.080Z,-3.6
2018-02-25T07:18:57.802Z,-3.59
2018-02-25T07:19:58.048Z,-3.66
2018-02-25T07:20:57.778Z,-3.66
2018-02-25T07:21:58.009Z,-3.66
2018-02-25T07:22:58.010Z,-3.63
2018-02-25T07:23:57.984Z,-3.69
2018-02-25T07:24:57.714Z,-3.62
2018-02-25T07:25:57.963Z,-3.67
2018-02-25T07:26:58.068Z,-3.76
2018-02-25T07:27:57.911Z,-3.75
2018-02-25T07:28:57.904Z,-3.62
2018-02-25T07:29:57.886Z,-3.62
2018-02-25T07:30:57.602Z,-3.53
2018-02-25T07:31:57.862Z,-3.56
2018-02-25T07:32:57.846Z,-3.59
2018-02-25T07:33:57.818Z,-3.46
2018-02-25T07:34:57.807Z,-3.38
2018-02-25T07:35:57.786Z,-3.39
2018-02-25T07:36:57.768Z,-3.48
2018-02-25T07:37:57.497Z,-3.49
2018-02-25T07:38:57.737Z,-3.49
2018-02-25T07:39:57.716Z,-3.6
2018-02-25T07:40:57.732Z,-3.63
2018-02-25T07:41:57.689Z,-3.53
2018-02-25T07:42:57.666Z,-3.63
2018-02-25T07:43:57.660Z,-3.59
2018-02-25T07:44:57.640Z,-3.62
2018-02-25T07:45:57.630Z,-3.54
2018-02-25T07:46:57.607Z,-3.56
2018-02-25T07:47:57.606Z,-3.46
2018-02-25T07:48:57.593Z,-3.25
2018-02-25T07:49:57.645Z,-3.21
2018-02-25T07:50:57.553Z,-3.27
2018-02-25T07:51:57.262Z,-3.36
2018-02-25T07:52:57.246Z,-3.48
2018-02-25T07:53:57.490Z,-3.62
2018-02-25T07:54:57.482Z,-3.67
2018-02-25T07:55:57.605Z,-3.76
2018-02-25T07:56:57.196Z,-3.91
2018-02-25T07:57:57.449Z,-3.91
2018-02-25T07:58:57.422Z,-3.96
2018-02-25T07:59:57.403Z,-3.88
2018-02-25T08:00:57.389Z,-3.86
2018-02-25T08:01:57.366Z,-3.93
2018-02-25T08:02:57.345Z,-3.94
2018-02-25T08:03:57.336Z,-3.96
2018-02-25T08:04:57.316Z,-3.97
2018-02-25T08:05:57.317Z,-4.12
2018-02-25T08:06:57.293Z,-4.21
2018-02-25T08:07:57.260Z,-4.28
2018-02-25T08:08:57.249Z,-4.35
2018-02-25T08:09:57.231Z,-4.32
2018-02-25T08:10:56.959Z,-4.29
2018-02-25T08:11:57.204Z,-4.3
2018-02-25T08:12:57.192Z,-4.17
2018-02-25T08:13:57.153Z,-4.2
2018-02-25T08:14:57.132Z,-4.18
2018-02-25T08:15:56.859Z,-4.17
2018-02-25T08:16:57.110Z,-4.17
2018-02-25T08:17:57.089Z,-4.18
2018-02-25T08:18:57.081Z,-4.29
2018-02-25T08:19:57.051Z,-4.15
2018-02-25T08:20:57.052Z,-4.06
2018-02-25T08:21:56.758Z,-4
2018-02-25T08:22:56.998Z,-4.03
2018-02-25T08:23:56.981Z,-4.03
2018-02-25T08:24:56.951Z,-4.03
2018-02-25T08:25:56.671Z,-4.03
2018-02-25T08:26:56.658Z,-4.06
2018-02-25T08:27:56.905Z,-4.04
2018-02-25T08:28:56.897Z,-3.97
2018-02-25T08:29:56.877Z,-4.03
2018-02-25T08:30:56.840Z,-4.12
2018-02-25T08:31:56.828Z,-4.14
2018-02-25T08:32:56.798Z,-4.2
2018-02-25T08:33:56.532Z,-4.18
2018-02-25T08:34:56.770Z,-4.11
2018-02-25T08:35:56.758Z,-4.15
2018-02-25T08:36:56.735Z,-4.14
2018-02-25T08:37:56.847Z,-4.2
2018-02-25T08:38:56.708Z,-4.07
2018-02-25T08:39:56.669Z,-4.17
2018-02-25T08:40:56.656Z,-4.15
2018-02-25T08:41:56.741Z,-4.29
2018-02-25T08:42:56.624Z,-4.29
2018-02-25T08:43:56.604Z,-4.32
2018-02-25T08:44:56.589Z,-4.24
2018-02-25T08:45:56.580Z,-4.17
2018-02-25T08:46:56.552Z,-4.24
2018-02-25T08:47:56.517Z,-4.2
2018-02-25T08:48:56.767Z,-4.18
2018-02-25T08:49:56.485Z,-4.22
2018-02-25T08:50:56.464Z,-4.17
2018-02-25T08:51:56.450Z,-4.28
2018-02-25T08:52:56.422Z,-4.21
2018-02-25T08:53:56.419Z,-4.04
2018-02-25T08:54:56.129Z,-4.15
2018-02-25T08:55:56.381Z,-4.04
2018-02-25T08:56:56.345Z,-3.97
2018-02-25T08:57:56.079Z,-3.91
2018-02-25T08:58:56.318Z,-3.85
2018-02-25T08:59:56.298Z,-3.85
2018-02-25T09:00:56.015Z,-3.86
2018-02-25T09:01:56.264Z,-3.75
2018-02-25T09:02:56.242Z,-3.72
2018-02-25T09:03:56.216Z,-3.63
2018-02-25T09:04:56.207Z,-3.56
2018-02-25T09:05:56.173Z,-3.57
2018-02-25T09:06:56.156Z,-3.54
2018-02-25T09:07:56.152Z,-3.53
2018-02-25T09:08:55.863Z,-3.35
2018-02-25T09:09:56.127Z,-3.36
2018-02-25T09:10:56.078Z,-3.38
2018-02-25T09:11:56.071Z,-3.39
2018-02-25T09:12:56.059Z,-3.36
2018-02-25T09:13:56.024Z,-3.41
2018-02-25T09:14:56.009Z,-3.38
2018-02-25T09:15:55.993Z,-3.27
2018-02-25T09:16:55.717Z,-3.24
2018-02-25T09:17:55.692Z,-3.15
2018-02-25T09:18:55.940Z,-3
2018-02-25T09:19:55.902Z,-2.97
2018-02-25T09:20:55.905Z,-2.94
2018-02-25T09:21:55.363Z,-2.96
2018-02-25T09:22:55.870Z,-2.81
2018-02-25T09:23:55.843Z,-2.88
2018-02-25T09:24:55.829Z,-2.74
2018-02-25T09:25:55.844Z,-2.7
2018-02-25T09:26:55.788Z,-2.71
2018-02-25T09:27:55.771Z,-2.6
2018-02-25T09:28:55.754Z,-2.63
2018-02-25T09:29:55.469Z,-2.7
2018-02-25T09:30:55.720Z,-2.66
2018-02-25T09:31:55.452Z,-2.6
2018-02-25T09:32:55.428Z,-2.64
2018-02-25T09:33:55.694Z,-2.55
2018-02-25T09:34:55.695Z,-2.49
2018-02-25T09:35:55.389Z,-2.46
2018-02-25T09:36:55.613Z,-2.56
2018-02-25T09:37:55.602Z,-2.46
2018-02-25T09:38:55.308Z,-2.58
2018-02-25T09:39:55.286Z,-2.53
2018-02-25T09:40:55.525Z,-2.58
2018-02-25T09:41:55.513Z,-2.52
2018-02-25T09:42:55.237Z,-2.64
2018-02-25T09:43:55.464Z,-2.5
2018-02-25T09:44:55.456Z,-2.49
2018-02-25T09:45:55.193Z,-2.45
2018-02-25T09:46:55.410Z,-2.46
2018-02-25T09:47:55.415Z,-2.39
2018-02-25T09:48:55.393Z,-2.32
2018-02-25T09:49:55.361Z,-2.32
2018-02-25T09:50:55.601Z,-2.27
2018-02-25T09:51:55.062Z,-2.18
2018-02-25T09:52:55.312Z,-2.24
2018-02-25T09:53:55.302Z,-2.27
2018-02-25T09:54:55.279Z,-2.32
2018-02-25T09:55:54.990Z,-2.3
2018-02-25T09:56:55.245Z,-2.15
2018-02-25T09:57:55.212Z,-2.15
2018-02-25T09:58:55.201Z,-2.13
2018-02-25T09:59:54.923Z,-2.21
2018-02-25T10:00:54.905Z,-2.24
2018-02-25T10:01:55.160Z,-2.2
2018-02-25T10:02:55.149Z,-2.12
2018-02-25T10:03:55.112Z,-2.18
2018-02-25T10:04:55.097Z,-2.2
2018-02-25T10:05:55.098Z,-2.16
2018-02-25T10:06:55.054Z,-2.23
2018-02-25T10:07:55.054Z,-2.15
2018-02-25T10:08:54.751Z,-2.24
2018-02-25T10:09:55.035Z,-2.23
2018-02-25T10:10:55.035Z,-2.2
2018-02-25T10:11:54.967Z,-2.16
2018-02-25T10:12:54.942Z,-2.18
2018-02-25T10:13:54.941Z,-2.2
2018-02-25T10:14:54.916Z,-2.18
2018-02-25T10:15:54.372Z,-2.2
2018-02-25T10:16:54.869Z,-2.13
2018-02-25T10:17:54.861Z,-2.24
2018-02-25T10:18:54.830Z,-2.32
2018-02-25T10:19:54.561Z,-2.23
2018-02-25T10:20:54.800Z,-2.23
2018-02-25T10:21:54.782Z,-2.2
2018-02-25T10:22:54.777Z,-2.24
2018-02-25T10:23:54.748Z,-2.16
2018-02-25T10:24:54.724Z,-2.18
2018-02-25T10:25:54.721Z,-2.21
2018-02-25T10:26:54.437Z,-2.26
2018-02-25T10:27:54.669Z,-2.24
2018-02-25T10:28:54.648Z,-2.2
2018-02-25T10:29:54.652Z,-2.12
2018-02-25T10:30:54.622Z,-2.02
2018-02-25T10:31:54.598Z,-1.95
2018-02-25T10:32:54.597Z,-1.8
2018-02-25T10:33:54.326Z,-1.84
2018-02-25T10:34:54.557Z,-1.85
2018-02-25T10:35:54.586Z,-1.88
2018-02-25T10:36:54.529Z,-1.85
2018-02-25T10:37:54.504Z,-1.88
2018-02-25T10:38:54.222Z,-1.94
2018-02-25T10:39:54.460Z,-1.84
2018-02-25T10:40:54.438Z,-1.8
2018-02-25T10:41:54.421Z,-1.88
2018-02-25T10:42:54.152Z,-1.87
2018-02-25T10:43:54.388Z,-1.79
2018-02-25T10:44:54.375Z,-1.79
2018-02-25T10:45:54.370Z,-1.77
2018-02-25T10:46:54.091Z,-1.66
2018-02-25T10:47:54.052Z,-1.62
2018-02-25T10:48:54.290Z,-1.48
2018-02-25T10:49:54.269Z,-1.51
2018-02-25T10:50:54.273Z,-1.59
2018-02-25T10:51:54.256Z,-1.52
2018-02-25T10:52:54.480Z,-1.49
2018-02-25T10:53:54.204Z,-1.43
2018-02-25T10:54:54.186Z,-1.48
2018-02-25T10:55:54.174Z,-1.43
2018-02-25T10:56:54.166Z,-1.46
2018-02-25T10:57:54.137Z,-1.45
2018-02-25T10:58:54.126Z,-1.43
2018-02-25T10:59:53.838Z,-1.33
2018-02-25T11:00:54.097Z,-1.38
2018-02-25T11:01:54.072Z,-1.34
2018-02-25T11:02:53.786Z,-1.22
2018-02-25T11:03:54.046Z,-1.13
2018-02-25T11:04:53.747Z,-1.1
2018-02-25T11:05:53.988Z,-1.04
2018-02-25T11:06:53.977Z,-1.12
2018-02-25T11:07:53.965Z,-1.12
2018-02-25T11:08:53.946Z,-1.04
2018-02-25T11:09:53.919Z,-0.98
2018-02-25T11:10:53.906Z,-0.97
2018-02-25T11:11:53.889Z,-1.13
2018-02-25T11:12:53.620Z,-1.09
2018-02-25T11:13:53.869Z,-1.15
2018-02-25T11:14:53.841Z,-1.17
2018-02-25T11:15:53.821Z,-1.1
2018-02-25T11:16:53.808Z,-1.12
2018-02-25T11:17:53.532Z,-1.13
2018-02-25T11:18:53.784Z,-0.95
2018-02-25T11:19:53.745Z,-0.97
2018-02-25T11:20:53.853Z,-0.79
2018-02-25T11:21:53.720Z,-0.8
2018-02-25T11:22:53.701Z,-0.65
2018-02-25T11:23:53.692Z,-0.65
2018-02-25T11:24:53.682Z,-0.55
2018-02-25T11:25:53.667Z,-0.72
2018-02-25T11:26:53.369Z,-0.58
2018-02-25T11:27:53.606Z,-0.64
2018-02-25T11:28:53.335Z,-0.6
2018-02-25T11:29:53.568Z,-0.67
2018-02-25T11:30:53.570Z,-0.67
2018-02-25T11:31:53.553Z,-0.82
2018-02-25T11:32:53.266Z,-0.99
2018-02-25T11:33:53.513Z,-0.95
2018-02-25T11:34:53.494Z,-1.02
2018-02-25T11:35:53.472Z,-0.98
2018-02-25T11:36:53.473Z,-1.04
2018-02-25T11:37:53.175Z,-0.85
2018-02-25T11:38:53.214Z,-0.8
2018-02-25T11:39:53.158Z,-0.78
2018-02-25T11:40:53.132Z,-0.73
2018-02-25T11:41:53.378Z,-0.6
2018-02-25T11:42:53.345Z,-0.57
2018-02-25T11:43:53.343Z,-0.51
2018-02-25T11:44:53.057Z,-0.52
2018-02-25T11:45:53.037Z,-0.55
2018-02-25T11:46:53.284Z,-0.54
2018-02-25T11:47:53.017Z,-0.75
2018-02-25T11:48:52.988Z,-0.83
2018-02-25T11:49:53.227Z,-0.92
2018-02-25T11:50:52.954Z,-0.94
2018-02-25T11:51:53.209Z,-0.98
2018-02-25T11:52:53.191Z,-0.94
2018-02-25T11:53:53.165Z,-0.95
2018-02-25T11:54:53.159Z,-0.83
2018-02-25T11:55:53.148Z,-0.78
2018-02-25T11:56:53.131Z,-0.69
2018-02-25T11:57:53.088Z,-0.65
2018-02-25T11:58:53.152Z,-0.7
2018-02-25T11:59:52.810Z,-0.65
2018-02-25T12:00:52.781Z,-0.62
2018-02-25T12:01:53.021Z,-0.6
2018-02-25T12:02:53.007Z,-0.67
2018-02-25T12:03:52.998Z,-0.61
2018-02-25T12:04:52.984Z,-0.61
2018-02-25T12:05:52.965Z,-0.52
2018-02-25T12:06:52.949Z,-0.57
2018-02-25T12:07:52.938Z,-0.58
2018-02-25T12:08:52.913Z,-0.6
2018-02-25T12:09:52.893Z,-0.55
2018-02-25T12:10:52.613Z,-0.49
2018-02-25T12:11:52.868Z,-0.54
2018-02-25T12:12:52.834Z,-0.62
2018-02-25T12:13:52.575Z,-0.61
2018-02-25T12:14:59.270Z,-0.55
2018-02-25T12:15:52.794Z,-0.57
2018-02-25T12:16:52.515Z,-0.57
2018-02-25T12:17:52.788Z,-0.58
2018-02-25T12:18:52.473Z,-0.55
2018-02-25T12:19:52.737Z,-0.67
2018-02-25T12:20:52.712Z,-0.65
2018-02-25T12:21:52.435Z,-0.61
2018-02-25T12:22:52.417Z,-0.67
2018-02-25T12:23:52.657Z,-0.67
2018-02-25T12:24:52.652Z,-0.64
2018-02-25T12:25:52.619Z,-0.6
2018-02-25T12:26:52.343Z,-0.69
2018-02-25T12:27:52.591Z,-0.72
2018-02-25T12:28:52.581Z,-0.69
2018-02-25T12:29:52.554Z,-0.69
2018-02-25T12:30:52.280Z,-0.72
2018-02-25T12:31:52.000Z,-0.82
2018-02-25T12:32:52.504Z,-0.79
2018-02-25T12:33:52.490Z,-0.79
2018-02-25T12:34:52.200Z,-0.75
2018-02-25T12:35:52.443Z,-0.8
2018-02-25T12:36:52.447Z,-0.85
2018-02-25T12:37:52.414Z,-0.79
2018-02-25T12:38:52.396Z,-0.67
2018-02-25T12:39:52.381Z,-0.64
2018-02-25T12:40:52.360Z,-0.67
2018-02-25T12:41:52.357Z,-0.58
2018-02-25T12:42:52.335Z,-0.37
2018-02-25T12:43:52.326Z,-0.34
2018-02-25T12:44:51.772Z,-0.37
2018-02-25T12:45:52.018Z,-0.33
2018-02-25T12:46:51.995Z,-0.21
2018-02-25T12:47:52.241Z,-0.36
2018-02-25T12:48:52.240Z,-0.33
2018-02-25T12:49:52.223Z,-0.33
2018-02-25T12:50:52.199Z,-0.42
2018-02-25T12:51:52.186Z,-0.44
2018-02-25T12:52:52.210Z,-0.33
2018-02-25T12:53:52.154Z,-0.28
2018-02-25T12:54:52.125Z,-0.22